Latest Coastal Weather Observations for Lucinda

IDQ60701

Issued at 12:31 am EST Wednesday 28 January 2015 (issued every 10 minutes, with the page automatically refreshed every 10 minutes)

About coastal observations | Map of coastal stations | Coastal observations for QLD | Marine services | Other Formats
Station Details ID: 032141 Name: LUCINDA POINT Lat: -18.52 Lon: 146.39 Height: 10.0 m
Data from the previous 72 hours. | See also: Recent months for locations in Queensland
Date/Time
EST
Temp

°C
Wind Pressure Rain
since 9am
mm
Weather Cloud Vis
km
Sea
Height
m
Swell
Dir
 
Speed
knots
Gust
knots
hPa Trend Height
m
Period
s
Dir
28/12:00am 29.7 N 9 11 1001.3 - 0.0 - - - - - - -
 
Date/Time
EST
Temp

°C
Wind Pressure Rain
since 9am
mm
Weather Cloud Vis
km
Sea
Height
m
Swell
Dir
 
Speed
knots
Gust
knots
hPa Trend Height
m
Period
s
Dir
27/11:30pm 29.7 N 9 11 1001.7 - 0.0 - - - - - - -
27/11:00pm 29.9 N 10 11 1001.9 - 0.0 - - - - - - -
27/10:30pm 29.8 NNW 7 8 1001.9 - 0.0 - - - - - - -
27/10:00pm 29.9 NNW 9 11 1001.8 - 0.0 - - - - - - -
27/09:30pm 30.0 NNW 10 12 1001.8 - 0.0 - - - - - - -
27/09:00pm 29.8 NNW 12 16 1001.7 - 0.0 - - - - - - -
27/08:30pm 29.8 NNW 15 19 1001.4 - 0.0 - - - - - - -
27/08:00pm 29.7 NNW 19 24 1001.0 - 0.0 - - - - - - -
27/07:30pm 30.0 NNW 20 25 1000.5 - 0.0 - - - - - - -
27/07:00pm 30.1 NNW 19 23 1000.1 - 0.0 - - - - - - -
27/06:30pm 30.7 N 15 18 999.6 - 0.0 - - - - - - -
27/06:00pm 31.1 N 17 20 999.1 - 0.0 - - - - - - -
27/05:30pm 31.2 N 16 19 998.7 - 0.0 - - - - - - -
27/05:00pm 31.5 N 17 19 998.8 - 0.0 - - - - - - -
27/04:30pm 31.9 N 14 15 998.7 - 0.0 - - - - - - -
27/04:00pm 32.5 N 13 15 998.8 - 0.0 - - - - - - -
27/03:30pm 32.1 NNE 11 12 999.1 - 0.0 - - - - - - -
27/03:00pm 32.2 N 12 14 999.4 - 0.0 - - - - - - -
27/02:30pm 32.0 NNE 11 14 999.7 - 0.0 - - - - - - -
27/02:00pm 31.4 N 12 14 1000.1 - 0.0 - - - - - - -
27/01:30pm 31.4 N 11 13 1000.6 - 0.0 - - - - - - -
27/01:00pm 31.1 N 11 13 1001.0 - 0.0 - - - - - - -
27/12:30pm 32.6 N 7 11 1001.2 - 0.0 - - - - - - -
27/12:00pm 33.7 SW 9 12 1001.4 - 0.0 - - - - - - -
27/11:30am 33.0 SW 13 16 1001.9 - 0.0 - - - - - - -
27/11:00am 32.6 SW 18 22 1002.3 - 0.0 - - - - - - -
27/10:30am 31.9 WSW 19 23 1002.5 - 0.0 - - - - - - -
27/10:00am 31.8 WSW 20 25 1002.6 - 0.0 - - - - - - -
27/09:30am 31.7 WSW 14 16 1002.6 - 0.0 - - - - - - -
27/09:00am 31.0 WSW 14 18 1003.0 - 0.0 - - - - - - -
27/08:30am 30.1 SW 11 12 1002.9 - 0.0 - - - - - - -
27/08:00am 29.1 SW 13 14 1002.6 - 0.0 - - - - - - -
27/07:30am 28.4 WSW 14 16 1002.6 - 0.0 - - - - - - -
27/07:00am 27.9 SW 16 17 1002.4 - 0.0 - - - - - - -
27/06:30am 27.6 SW 14 15 1002.0 - 0.0 - - - - - - -
27/06:00am 28.7 WSW 14 16 1001.6 - 0.0 - - - - - - -
27/05:30am 29.0 WSW 14 16 1001.3 - 0.0 - - - - - - -
27/05:00am 29.2 WSW 12 14 1001.5 - 0.0 - - - - - - -
27/04:30am 29.7 WSW 3 8 1001.4 - 0.0 - - - - - - -
27/04:00am 29.3 N 5 8 1001.5 - 0.0 - - - - - - -
27/03:30am 29.2 N 1 4 1001.6 - 0.0 - - - - - - -
27/03:00am 29.2 NNW 5 6 1001.9 - 0.0 - - - - - - -
27/02:30am 29.4 NW 9 11 1002.0 - 0.0 - - - - - - -
27/02:00am 29.6 WSW 10 12 1002.2 - 0.0 - - - - - - -
27/01:30am 29.3 SW 6 7 1002.3 - 0.0 - - - - - - -
27/01:00am 29.5 SW 3 4 1003.0 - 0.0 - - - - - - -
27/12:30am 29.2 SW 6 8 1003.6 - 0.0 - - - - - - -
27/12:00am 29.6 CALM 0 4 1004.0 - 0.0 - - - - - - -
 
Date/Time
EST
Temp

°C
Wind Pressure Rain
since 9am
mm
Weather Cloud Vis
km
Sea
Height
m
Swell
Dir
 
Speed
knots
Gust
knots
hPa Trend Height
m
Period
s
Dir
26/11:30pm 29.7 N 5 6 1004.3 - 0.0 - - - - - - -
26/11:00pm 29.9 NNW 3 8 1004.6 - 0.0 - - - - - - -
26/10:30pm 29.9 N 3 6 1004.6 - 0.0 - - - - - - -
26/10:00pm 29.7 NNW 8 11 1004.0 - 0.0 - - - - - - -
26/09:30pm 29.5 NNW 12 14 1003.6 - 0.0 - - - - - - -
26/09:00pm 29.4 NNW 14 17 1003.3 - 0.0 - - - - - - -
26/08:30pm 29.5 NNW 13 15 1003.5 - 0.0 - - - - - - -
26/08:00pm 29.6 N 13 16 1003.0 - 0.0 - - - - - - -
26/07:30pm 29.6 N 13 16 1002.9 - 0.0 - - - - - - -
26/07:00pm 29.7 N 12 15 1002.5 - 0.0 - - - - - - -
26/06:30pm 29.6 N 12 14 1001.7 - 0.0 - - - - - - -
26/06:00pm 29.6 N 13 16 1001.7 - 0.0 - - - - - - -
26/05:30pm 29.7 NNE 13 15 1001.5 - 0.0 - - - - - - -
26/05:00pm 29.8 NNE 13 14 1001.5 - 0.0 - - - - - - -
26/04:30pm 29.8 NE 14 15 1001.4 - 0.0 - - - - - - -
26/04:00pm 29.8 NE 14 15 1001.5 - 0.0 - - - - - - -
26/03:30pm 30.0 NE 13 14 1002.0 - 0.0 - - - - - - -
26/03:00pm 30.7 NNE 12 14 1002.5 - 0.0 - - - - - - -
26/02:30pm 30.4 NNE 12 14 1002.9 - 0.0 - - - - - - -
26/02:00pm 31.0 N 12 14 1003.3 - 0.0 - - - - - - -
26/01:30pm 31.0 NNE 11 13 1003.6 - 0.0 - - - - - - -
26/01:00pm 29.6 NE 11 11 1004.0 - 0.0 - - - - - - -
26/12:30pm 29.9 NNE 10 12 1004.4 - 0.0 - - - - - - -
26/12:00pm 30.2 NNE 9 11 1004.6 - 0.0 - - - - - - -
26/11:30am 31.4 ESE 5 7 1005.1 - 0.0 - - - - - - -
26/11:00am 30.7 E 4 6 1005.3 - 0.0 - - - - - - -
26/10:30am 31.3 E 3 5 1005.6 - 0.0 - - - - - - -
26/10:00am 32.6 NNW 1 3 1005.5 - 0.0 - - - - - - -
26/09:30am 31.7 NW 4 5 1005.5 - 0.0 - - - - - - -
26/09:00am 28.5 SW 6 7 1005.4 - 6.0 - - - - - - -
26/08:30am 28.4 SW 4 5 1005.3 - 6.0 - - - - - - -
26/08:00am 27.9 NW 6 7 1005.5 - 6.0 - - - - - - -
26/07:30am 26.8 W 7 8 1006.0 - 6.0 - - - - - - -
26/07:00am 27.2 W 6 8 1005.9 - 6.0 - - - - - - -
26/06:30am 26.1 WSW 11 13 1006.0 - 6.0 - - - - - - -
26/06:00am 26.6 WSW 8 9 1005.9 - 6.0 - - - - - - -
26/05:30am 27.0 SW 6 7 1005.7 - 6.0 - - - - - - -
26/05:00am 27.6 SW 8 9 1005.5 - 6.0 - - - - - - -
26/04:30am 27.6 WSW 12 14 1005.2 - 6.0 - - - - - - -
26/04:00am 26.8 WSW 13 16 1005.5 - 6.0 - - - - - - -
26/03:30am 26.4 W 16 18 1005.6 - 6.0 - - - - - - -
26/03:00am 26.0 SW 16 19 1006.2 - 6.0 - - - - - - -
26/02:30am 25.9 WSW 17 21 1006.4 - 6.0 - - - - - - -
26/02:00am 26.8 SW 9 10 1006.3 - 6.0 - - - - - - -
26/01:30am 26.5 SSW 9 11 1006.5 - 6.0 - - - - - - -
26/01:00am 26.4 SSW 11 12 1006.7 - 6.0 - - - - - - -
26/12:30am 26.2 WSW 12 14 1007.0 - 6.0 - - - - - - -
26/12:00am 25.7 WSW 10 12 1007.4 - 6.0 - - - - - - -
 
Date/Time
EST
Temp

°C
Wind Pressure Rain
since 9am
mm
Weather Cloud Vis
km
Sea
Height
m
Swell
Dir
 
Speed
knots
Gust
knots
hPa Trend Height
m
Period
s
Dir
25/11:30pm 25.9 WSW 10 13 1007.6 - 6.0 - - - - - - -
25/11:00pm 27.0 WNW 7 9 1007.5 - 6.0 - - - - - - -
25/10:30pm 26.5 N 8 10 1007.7 - 5.6 - - - - - - -
25/10:00pm 26.6 WNW 10 12 1007.9 - 5.6 - - - - - - -
25/09:30pm 26.6 W 7 9 1007.8 - 5.4 - - - - - - -
25/09:00pm 26.0 NW 13 18 1007.9 - 5.0 Rain - - - - - -
25/08:30pm 26.3 NW 16 21 1007.0 - 4.0 - - - - - - -
25/08:00pm 26.7 NW 11 15 1006.4 - 3.4 - - - - - - -
25/07:30pm 27.0 ESE 8 11 1005.7 - 2.8 - - - - - - -
25/07:00pm 26.4 SE 12 19 1005.5 - 2.6 - - - - - - -
25/06:30pm 29.4 NNE 15 21 1005.4 - 0.0 - - - - - - -
25/06:00pm 30.0 N 17 21 1003.7 - 0.0 - - - - - - -
25/05:30pm 30.2 N 18 22 1003.3 - 0.0 - - - - - - -
25/05:00pm 30.4 N 15 19 1003.0 - 0.0 - - - - - - -
25/04:30pm 30.6 N 15 18 1003.2 - 0.0 - - - - - - -
25/04:00pm 30.8 N 13 16 1003.3 - 0.0 - - - - - - -
25/03:30pm 30.9 N 14 16 1003.4 - 0.0 - - - - - - -
25/03:00pm 31.5 N 10 12 1003.7 - 0.0 - - - - - - -
25/02:30pm 32.2 NNW 12 14 1004.2 - 0.0 - - - - - - -
25/02:00pm 31.4 NNW 11 14 1004.8 - 0.0 - - - - - - -
25/01:30pm 30.6 NNW 11 14 1005.4 - 0.0 - - - - - - -
25/01:00pm 30.1 N 12 15 1006.1 - 0.0 - - - - - - -
25/12:30pm 29.5 N 13 17 1006.4 - 0.0 - - - - - - -
25/12:00pm 29.4 N 13 15 1006.7 - 0.0 - - - - - - -
25/11:30am 29.5 N 10 13 1007.3 - 0.0 - - - - - - -
25/11:00am 29.3 N 8 9 1007.8 - 0.0 - - - - - - -
25/10:30am 28.9 NNE 5 7 1008.0 - 0.0 - - - - - - -
25/10:00am 29.2 E 4 5 1008.2 - 0.0 - - - - - - -
25/09:30am 29.1 NE 1 4 1008.3 - 0.0 - - - - - - -
25/09:00am 28.7 WNW 4 6 1008.5 - 5.2 - - - - - - -
25/08:30am 27.3 WSW 6 7 1008.4 - 5.2 - - - - - - -
25/08:00am 26.9 W 7 9 1008.2 - 5.2 - - - - - - -
25/07:30am 26.6 WSW 11 13 1008.0 - 5.2 - - - - - - -
25/07:00am 26.6 WSW 11 13 1007.8 - 5.2 - - - - - - -
25/06:30am 26.0 WSW 8 11 1007.3 - 5.2 - - - - - - -
25/06:00am 26.4 WSW 11 13 1006.8 - 5.2 - - - - - - -
25/05:30am 26.7 SSW 5 9 1006.2 - 5.2 - - - - - - -
25/05:00am 26.8 SW 6 8 1006.5 - 5.2 - - - - - - -
25/04:30am 27.6 SW 6 8 1006.4 - 5.2 - - - - - - -
25/04:00am 27.4 SW 6 8 1006.5 - 5.2 - - - - - - -
25/03:30am 27.5 NNW 9 12 1006.4 - 5.2 - - - - - - -
25/03:00am 27.1 NW 7 12 1006.5 - 5.2 - - - - - - -
25/02:30am 27.3 WNW 5 10 1006.8 - 5.2 - - - - - - -
25/02:00am 27.1 WSW 9 11 1007.1 - 5.2 - - - - - - -
25/01:30am 27.6 NNW 17 20 1006.7 - 5.2 - - - - - - -
25/01:00am 27.3 N 8 16 1007.1 - 5.2 - - - - - - -

Other Formats:

Comma delimited format used in spreadsheet applications
http://www.bom.gov.au/fwo/IDQ60701/IDQ60701.94295.axf

JavaScript Object Notation format (JSON) in row-major order
http://www.bom.gov.au/fwo/IDQ60701/IDQ60701.94295.json